sensor_id;sensor_type;location;lat;lon;timestamp;P1;durP1;ratioP1;P2;durP2;ratioP2
71769;SDS011;66386;52.122;5.420;2023-04-02T00:00:03;8.80;;;5.97;;
71769;SDS011;66386;52.122;5.420;2023-04-02T00:05:27;11.02;;;6.18;;
71769;SDS011;66386;52.122;5.420;2023-04-02T00:07:57;9.43;;;6.55;;
71769;SDS011;66386;52.122;5.420;2023-04-02T00:15:36;10.47;;;6.20;;
71769;SDS011;66386;52.122;5.420;2023-04-02T00:18:04;14.00;;;6.70;;
71769;SDS011;66386;52.122;5.420;2023-04-02T00:20:33;10.43;;;6.82;;
71769;SDS011;66386;52.122;5.420;2023-04-02T00:23:03;11.80;;;7.32;;
71769;SDS011;66386;52.122;5.420;2023-04-02T00:25:33;10.82;;;7.13;;
71769;SDS011;66386;52.122;5.420;2023-04-02T00:28:02;12.07;;;6.67;;
71769;SDS011;66386;52.122;5.420;2023-04-02T00:30:29;13.52;;;7.28;;
71769;SDS011;66386;52.122;5.420;2023-04-02T00:32:56;10.88;;;7.32;;
71769;SDS011;66386;52.122;5.420;2023-04-02T00:35:27;10.38;;;6.35;;
71769;SDS011;66386;52.122;5.420;2023-04-02T00:37:54;9.95;;;5.93;;
71769;SDS011;66386;52.122;5.420;2023-04-02T00:40:28;11.27;;;6.43;;
71769;SDS011;66386;52.122;5.420;2023-04-02T00:42:57;9.07;;;6.15;;
71769;SDS011;66386;52.122;5.420;2023-04-02T00:45:26;9.38;;;6.38;;
71769;SDS011;66386;52.122;5.420;2023-04-02T00:47:56;12.38;;;6.63;;
71769;SDS011;66386;52.122;5.420;2023-04-02T00:50:30;11.52;;;6.80;;
71769;SDS011;66386;52.122;5.420;2023-04-02T00:53:09;10.03;;;6.63;;
71769;SDS011;66386;52.122;5.420;2023-04-02T00:55:49;14.80;;;6.55;;
71769;SDS011;66386;52.122;5.420;2023-04-02T01:01:03;14.25;;;6.45;;
71769;SDS011;66386;52.122;5.420;2023-04-02T01:03:42;16.23;;;7.10;;
71769;SDS011;66386;52.122;5.420;2023-04-02T01:06:13;12.67;;;6.43;;
71769;SDS011;66386;52.122;5.420;2023-04-02T01:12:00;11.00;;;6.57;;
71769;SDS011;66386;52.122;5.420;2023-04-02T01:15:10;12.50;;;6.13;;
71769;SDS011;66386;52.122;5.420;2023-04-02T01:20:27;14.60;;;6.40;;
71769;SDS011;66386;52.122;5.420;2023-04-02T01:28:33;9.10;;;6.13;;
71769;SDS011;66386;52.122;5.420;2023-04-02T01:31:19;14.48;;;6.32;;
71769;SDS011;66386;52.122;5.420;2023-04-02T01:33:47;6.47;;;5.23;;
71769;SDS011;66386;52.122;5.420;2023-04-02T01:36:19;7.38;;;5.68;;
71769;SDS011;66386;52.122;5.420;2023-04-02T01:41:50;8.88;;;5.95;;
71769;SDS011;66386;52.122;5.420;2023-04-02T01:47:20;10.27;;;6.77;;
71769;SDS011;66386;52.122;5.420;2023-04-02T01:49:52;8.07;;;5.90;;
71769;SDS011;66386;52.122;5.420;2023-04-02T01:52:38;6.65;;;5.45;;
71769;SDS011;66386;52.122;5.420;2023-04-02T01:55:08;9.25;;;5.50;;
71769;SDS011;66386;52.122;5.420;2023-04-02T01:57:39;5.78;;;5.15;;
71769;SDS011;66386;52.122;5.420;2023-04-02T02:00:10;8.43;;;5.83;;
71769;SDS011;66386;52.122;5.420;2023-04-02T02:02:40;8.15;;;5.53;;
71769;SDS011;66386;52.122;5.420;2023-04-02T02:05:11;9.27;;;5.78;;
71769;SDS011;66386;52.122;5.420;2023-04-02T02:07:39;11.32;;;5.93;;
71769;SDS011;66386;52.122;5.420;2023-04-02T02:10:10;9.82;;;5.50;;
71769;SDS011;66386;52.122;5.420;2023-04-02T02:12:42;8.90;;;5.10;;
71769;SDS011;66386;52.122;5.420;2023-04-02T02:15:16;8.00;;;5.95;;
71769;SDS011;66386;52.122;5.420;2023-04-02T02:17:45;8.23;;;5.55;;
71769;SDS011;66386;52.122;5.420;2023-04-02T02:20:11;10.43;;;5.55;;
71769;SDS011;66386;52.122;5.420;2023-04-02T02:22:41;9.82;;;5.82;;
71769;SDS011;66386;52.122;5.420;2023-04-02T02:25:13;8.60;;;5.37;;
71769;SDS011;66386;52.122;5.420;2023-04-02T02:27:46;10.77;;;5.30;;
71769;SDS011;66386;52.122;5.420;2023-04-02T02:30:30;11.50;;;5.50;;
71769;SDS011;66386;52.122;5.420;2023-04-02T02:33:13;10.23;;;5.50;;
71769;SDS011;66386;52.122;5.420;2023-04-02T02:41:00;12.43;;;4.80;;
71769;SDS011;66386;52.122;5.420;2023-04-02T02:43:41;13.15;;;5.63;;
71769;SDS011;66386;52.122;5.420;2023-04-02T02:46:15;8.45;;;5.20;;
71769;SDS011;66386;52.122;5.420;2023-04-02T02:48:45;11.20;;;5.43;;
71769;SDS011;66386;52.122;5.420;2023-04-02T02:51:36;12.23;;;5.00;;
71769;SDS011;66386;52.122;5.420;2023-04-02T02:54:07;10.45;;;5.30;;
71769;SDS011;66386;52.122;5.420;2023-04-02T02:56:34;11.70;;;5.10;;
71769;SDS011;66386;52.122;5.420;2023-04-02T02:59:06;9.75;;;4.75;;
71769;SDS011;66386;52.122;5.420;2023-04-02T03:01:36;7.63;;;5.10;;
71769;SDS011;66386;52.122;5.420;2023-04-02T03:04:03;7.13;;;4.50;;
71769;SDS011;66386;52.122;5.420;2023-04-02T03:06:30;10.93;;;5.50;;
71769;SDS011;66386;52.122;5.420;2023-04-02T03:09:01;9.55;;;5.57;;
71769;SDS011;66386;52.122;5.420;2023-04-02T03:11:33;8.73;;;5.80;;
71769;SDS011;66386;52.122;5.420;2023-04-02T03:14:09;10.15;;;5.55;;
71769;SDS011;66386;52.122;5.420;2023-04-02T03:16:46;12.43;;;5.93;;
71769;SDS011;66386;52.122;5.420;2023-04-02T03:24:55;10.07;;;5.18;;
71769;SDS011;66386;52.122;5.420;2023-04-02T03:27:28;6.35;;;4.63;;
71769;SDS011;66386;52.122;5.420;2023-04-02T03:33:30;8.55;;;5.28;;
71769;SDS011;66386;52.122;5.420;2023-04-02T03:36:02;10.13;;;5.82;;
71769;SDS011;66386;52.122;5.420;2023-04-02T03:38:46;13.15;;;5.35;;
71769;SDS011;66386;52.122;5.420;2023-04-02T03:41:46;9.43;;;4.63;;
71769;SDS011;66386;52.122;5.420;2023-04-02T03:44:27;10.63;;;4.97;;
71769;SDS011;66386;52.122;5.420;2023-04-02T03:47:02;9.13;;;5.65;;
71769;SDS011;66386;52.122;5.420;2023-04-02T03:49:37;9.02;;;5.05;;
71769;SDS011;66386;52.122;5.420;2023-04-02T03:52:09;6.88;;;4.82;;
71769;SDS011;66386;52.122;5.420;2023-04-02T03:54:38;8.35;;;4.45;;
71769;SDS011;66386;52.122;5.420;2023-04-02T03:57:33;5.87;;;4.30;;
71769;SDS011;66386;52.122;5.420;2023-04-02T04:03:00;7.75;;;4.50;;
71769;SDS011;66386;52.122;5.420;2023-04-02T04:05:33;6.72;;;4.85;;
71769;SDS011;66386;52.122;5.420;2023-04-02T04:08:04;8.18;;;5.13;;
71769;SDS011;66386;52.122;5.420;2023-04-02T04:10:33;5.23;;;4.40;;
71769;SDS011;66386;52.122;5.420;2023-04-02T04:13:02;7.25;;;4.90;;
71769;SDS011;66386;52.122;5.420;2023-04-02T04:15:59;6.95;;;4.65;;
71769;SDS011;66386;52.122;5.420;2023-04-02T04:18:33;7.13;;;4.38;;
71769;SDS011;66386;52.122;5.420;2023-04-02T04:21:21;7.60;;;4.97;;
71769;SDS011;66386;52.122;5.420;2023-04-02T04:24:06;7.00;;;4.60;;
71769;SDS011;66386;52.122;5.420;2023-04-02T04:27:05;6.13;;;4.97;;
71769;SDS011;66386;52.122;5.420;2023-04-02T04:29:39;7.47;;;4.22;;
71769;SDS011;66386;52.122;5.420;2023-04-02T04:32:24;7.05;;;5.00;;
71769;SDS011;66386;52.122;5.420;2023-04-02T04:34:58;6.82;;;4.80;;
71769;SDS011;66386;52.122;5.420;2023-04-02T04:37:34;6.97;;;4.23;;
71769;SDS011;66386;52.122;5.420;2023-04-02T04:40:15;7.95;;;3.95;;
71769;SDS011;66386;52.122;5.420;2023-04-02T04:42:49;7.50;;;3.80;;
71769;SDS011;66386;52.122;5.420;2023-04-02T04:45:29;5.18;;;3.88;;
71769;SDS011;66386;52.122;5.420;2023-04-02T04:48:28;6.55;;;3.67;;
71769;SDS011;66386;52.122;5.420;2023-04-02T04:51:06;5.23;;;3.53;;
71769;SDS011;66386;52.122;5.420;2023-04-02T04:53:41;7.28;;;3.90;;
71769;SDS011;66386;52.122;5.420;2023-04-02T04:56:12;4.45;;;3.40;;
71769;SDS011;66386;52.122;5.420;2023-04-02T05:04:54;7.37;;;3.70;;
71769;SDS011;66386;52.122;5.420;2023-04-02T05:07:06;5.07;;;3.40;;
71769;SDS011;66386;52.122;5.420;2023-04-02T05:09:54;8.70;;;3.17;;
71769;SDS011;66386;52.122;5.420;2023-04-02T05:12:36;4.95;;;2.78;;
71769;SDS011;66386;52.122;5.420;2023-04-02T05:17:58;4.50;;;2.20;;
71769;SDS011;66386;52.122;5.420;2023-04-02T05:20:33;6.13;;;2.38;;
71769;SDS011;66386;52.122;5.420;2023-04-02T05:23:12;6.55;;;2.45;;
71769;SDS011;66386;52.122;5.420;2023-04-02T05:28:42;5.13;;;2.22;;
71769;SDS011;66386;52.122;5.420;2023-04-02T05:33:51;3.65;;;1.48;;
71769;SDS011;66386;52.122;5.420;2023-04-02T05:36:19;4.57;;;1.58;;
71769;SDS011;66386;52.122;5.420;2023-04-02T05:38:49;7.00;;;1.77;;
71769;SDS011;66386;52.122;5.420;2023-04-02T05:41:27;2.58;;;1.30;;
71769;SDS011;66386;52.122;5.420;2023-04-02T05:44:07;4.40;;;1.43;;
71769;SDS011;66386;52.122;5.420;2023-04-02T05:46:48;5.20;;;1.35;;
71769;SDS011;66386;52.122;5.420;2023-04-02T05:49:22;3.60;;;1.50;;
71769;SDS011;66386;52.122;5.420;2023-04-02T05:51:55;6.93;;;1.50;;
71769;SDS011;66386;52.122;5.420;2023-04-02T05:54:28;3.25;;;1.50;;
71769;SDS011;66386;52.122;5.420;2023-04-02T05:57:03;2.03;;;1.13;;
71769;SDS011;66386;52.122;5.420;2023-04-02T05:59:37;4.22;;;1.50;;
71769;SDS011;66386;52.122;5.420;2023-04-02T06:02:16;3.22;;;1.00;;
71769;SDS011;66386;52.122;5.420;2023-04-02T06:07:39;6.18;;;1.33;;
71769;SDS011;66386;52.122;5.420;2023-04-02T06:10:13;2.97;;;1.07;;
71769;SDS011;66386;52.122;5.420;2023-04-02T06:12:47;4.25;;;1.27;;
71769;SDS011;66386;52.122;5.420;2023-04-02T06:15:19;3.90;;;1.13;;
71769;SDS011;66386;52.122;5.420;2023-04-02T06:17:51;3.28;;;1.10;;
71769;SDS011;66386;52.122;5.420;2023-04-02T06:20:24;4.72;;;1.50;;
71769;SDS011;66386;52.122;5.420;2023-04-02T06:22:58;1.80;;;1.07;;
71769;SDS011;66386;52.122;5.420;2023-04-02T06:25:29;4.13;;;1.25;;
71769;SDS011;66386;52.122;5.420;2023-04-02T06:28:03;3.67;;;1.23;;
71769;SDS011;66386;52.122;5.420;2023-04-02T06:30:35;3.00;;;1.50;;
71769;SDS011;66386;52.122;5.420;2023-04-02T06:33:04;4.05;;;1.90;;
71769;SDS011;66386;52.122;5.420;2023-04-02T06:35:31;3.07;;;1.50;;
71769;SDS011;66386;52.122;5.420;2023-04-02T06:38:03;2.47;;;1.45;;
71769;SDS011;66386;52.122;5.420;2023-04-02T06:46:07;4.20;;;1.50;;
71769;SDS011;66386;52.122;5.420;2023-04-02T06:48:39;4.63;;;1.83;;
71769;SDS011;66386;52.122;5.420;2023-04-02T06:51:08;5.60;;;2.00;;
71769;SDS011;66386;52.122;5.420;2023-04-02T06:53:39;4.50;;;1.80;;
71769;SDS011;66386;52.122;5.420;2023-04-02T06:59:09;5.00;;;1.52;;
71769;SDS011;66386;52.122;5.420;2023-04-02T07:01:45;3.63;;;1.53;;
71769;SDS011;66386;52.122;5.420;2023-04-02T07:04:31;3.13;;;2.00;;
71769;SDS011;66386;52.122;5.420;2023-04-02T07:06:58;3.92;;;2.35;;
71769;SDS011;66386;52.122;5.420;2023-04-02T07:09:25;3.35;;;2.05;;
71769;SDS011;66386;52.122;5.420;2023-04-02T07:11:51;3.78;;;2.40;;
71769;SDS011;66386;52.122;5.420;2023-04-02T07:14:18;3.30;;;2.50;;
71769;SDS011;66386;52.122;5.420;2023-04-02T07:16:44;5.10;;;2.50;;
71769;SDS011;66386;52.122;5.420;2023-04-02T07:19:18;5.75;;;2.40;;
71769;SDS011;66386;52.122;5.420;2023-04-02T07:21:46;3.50;;;1.95;;
71769;SDS011;66386;52.122;5.420;2023-04-02T07:24:13;4.47;;;2.05;;
71769;SDS011;66386;52.122;5.420;2023-04-02T07:26:39;4.13;;;2.67;;
71769;SDS011;66386;52.122;5.420;2023-04-02T07:29:07;6.13;;;2.90;;
71769;SDS011;66386;52.122;5.420;2023-04-02T07:31:38;4.93;;;3.08;;
71769;SDS011;66386;52.122;5.420;2023-04-02T07:34:06;4.80;;;2.90;;
71769;SDS011;66386;52.122;5.420;2023-04-02T07:36:33;7.00;;;2.42;;
71769;SDS011;66386;52.122;5.420;2023-04-02T07:39:03;5.13;;;2.47;;
71769;SDS011;66386;52.122;5.420;2023-04-02T07:41:30;4.25;;;2.67;;
71769;SDS011;66386;52.122;5.420;2023-04-02T07:43:56;5.50;;;2.78;;
71769;SDS011;66386;52.122;5.420;2023-04-02T07:46:23;3.85;;;2.72;;
71769;SDS011;66386;52.122;5.420;2023-04-02T07:48:50;4.45;;;2.42;;
71769;SDS011;66386;52.122;5.420;2023-04-02T07:51:18;6.37;;;2.33;;
71769;SDS011;66386;52.122;5.420;2023-04-02T07:53:46;4.60;;;2.90;;
71769;SDS011;66386;52.122;5.420;2023-04-02T07:56:20;4.10;;;2.55;;
71769;SDS011;66386;52.122;5.420;2023-04-02T07:58:48;5.65;;;2.83;;
71769;SDS011;66386;52.122;5.420;2023-04-02T08:01:24;3.00;;;2.70;;
71769;SDS011;66386;52.122;5.420;2023-04-02T08:03:52;4.87;;;2.80;;
71769;SDS011;66386;52.122;5.420;2023-04-02T08:06:21;2.63;;;2.40;;
71769;SDS011;66386;52.122;5.420;2023-04-02T08:08:48;4.75;;;3.00;;
71769;SDS011;66386;52.122;5.420;2023-04-02T08:11:15;5.38;;;2.58;;
71769;SDS011;66386;52.122;5.420;2023-04-02T08:13:42;3.03;;;2.30;;
71769;SDS011;66386;52.122;5.420;2023-04-02T08:16:09;2.90;;;2.70;;
71769;SDS011;66386;52.122;5.420;2023-04-02T08:18:35;5.68;;;2.95;;
71769;SDS011;66386;52.122;5.420;2023-04-02T08:21:04;7.22;;;3.50;;
71769;SDS011;66386;52.122;5.420;2023-04-02T08:23:32;5.53;;;2.78;;
71769;SDS011;66386;52.122;5.420;2023-04-02T08:26:00;4.70;;;3.05;;
71769;SDS011;66386;52.122;5.420;2023-04-02T08:28:26;4.77;;;3.20;;
71769;SDS011;66386;52.122;5.420;2023-04-02T08:30:53;4.90;;;3.13;;
71769;SDS011;66386;52.122;5.420;2023-04-02T08:33:19;3.55;;;2.97;;
71769;SDS011;66386;52.122;5.420;2023-04-02T08:35:49;2.85;;;2.13;;
71769;SDS011;66386;52.122;5.420;2023-04-02T08:38:17;3.13;;;2.15;;
71769;SDS011;66386;52.122;5.420;2023-04-02T08:40:46;3.30;;;2.20;;
71769;SDS011;66386;52.122;5.420;2023-04-02T08:43:19;3.22;;;2.20;;
71769;SDS011;66386;52.122;5.420;2023-04-02T08:46:21;4.80;;;2.50;;
71769;SDS011;66386;52.122;5.420;2023-04-02T08:48:53;2.60;;;2.35;;
71769;SDS011;66386;52.122;5.420;2023-04-02T08:51:24;3.05;;;1.92;;
71769;SDS011;66386;52.122;5.420;2023-04-02T08:53:58;3.27;;;1.93;;
71769;SDS011;66386;52.122;5.420;2023-04-02T08:56:29;2.40;;;1.95;;
71769;SDS011;66386;52.122;5.420;2023-04-02T08:59:06;2.58;;;1.70;;
71769;SDS011;66386;52.122;5.420;2023-04-02T09:04:36;1.77;;;1.58;;
71769;SDS011;66386;52.122;5.420;2023-04-02T09:07:03;3.60;;;1.93;;
71769;SDS011;66386;52.122;5.420;2023-04-02T09:09:31;5.00;;;1.98;;
71769;SDS011;66386;52.122;5.420;2023-04-02T09:12:02;3.13;;;1.70;;
71769;SDS011;66386;52.122;5.420;2023-04-02T09:16:59;2.30;;;1.40;;
71769;SDS011;66386;52.122;5.420;2023-04-02T09:19:37;3.37;;;1.17;;
71769;SDS011;66386;52.122;5.420;2023-04-02T09:22:16;3.35;;;1.83;;
71769;SDS011;66386;52.122;5.420;2023-04-02T09:24:53;3.40;;;1.42;;
71769;SDS011;66386;52.122;5.420;2023-04-02T09:27:22;3.83;;;1.20;;
71769;SDS011;66386;52.122;5.420;2023-04-02T09:29:54;4.70;;;1.60;;
71769;SDS011;66386;52.122;5.420;2023-04-02T09:32:31;4.00;;;1.03;;
71769;SDS011;66386;52.122;5.420;2023-04-02T09:35:07;2.85;;;0.60;;
71769;SDS011;66386;52.122;5.420;2023-04-02T09:38:09;1.98;;;1.20;;
71769;SDS011;66386;52.122;5.420;2023-04-02T09:40:53;3.10;;;1.08;;
71769;SDS011;66386;52.122;5.420;2023-04-02T09:46:02;3.57;;;1.20;;
71769;SDS011;66386;52.122;5.420;2023-04-02T09:48:45;3.53;;;1.35;;
71769;SDS011;66386;52.122;5.420;2023-04-02T09:51:22;2.75;;;1.27;;
71769;SDS011;66386;52.122;5.420;2023-04-02T09:54:05;3.95;;;1.20;;
71769;SDS011;66386;52.122;5.420;2023-04-02T09:56:37;3.22;;;1.58;;
71769;SDS011;66386;52.122;5.420;2023-04-02T10:09:56;2.13;;;0.60;;
71769;SDS011;66386;52.122;5.420;2023-04-02T10:12:24;2.27;;;0.67;;
71769;SDS011;66386;52.122;5.420;2023-04-02T10:14:54;2.80;;;0.80;;
71769;SDS011;66386;52.122;5.420;2023-04-02T10:17:29;2.50;;;0.63;;
71769;SDS011;66386;52.122;5.420;2023-04-02T10:20:16;2.55;;;0.80;;
71769;SDS011;66386;52.122;5.420;2023-04-02T10:22:45;3.75;;;0.68;;
71769;SDS011;66386;52.122;5.420;2023-04-02T10:25:12;3.47;;;0.77;;
71769;SDS011;66386;52.122;5.420;2023-04-02T10:27:43;2.33;;;0.70;;
71769;SDS011;66386;52.122;5.420;2023-04-02T10:30:27;3.15;;;1.05;;
71769;SDS011;66386;52.122;5.420;2023-04-02T10:33:17;2.72;;;0.73;;
71769;SDS011;66386;52.122;5.420;2023-04-02T10:36:00;2.38;;;0.55;;
71769;SDS011;66386;52.122;5.420;2023-04-02T10:46:53;5.53;;;0.68;;
71769;SDS011;66386;52.122;5.420;2023-04-02T10:55:17;3.83;;;0.98;;
71769;SDS011;66386;52.122;5.420;2023-04-02T10:57:55;2.40;;;1.30;;
71769;SDS011;66386;52.122;5.420;2023-04-02T11:00:29;1.80;;;0.98;;
71769;SDS011;66386;52.122;5.420;2023-04-02T11:03:04;6.40;;;0.88;;
71769;SDS011;66386;52.122;5.420;2023-04-02T11:05:41;6.90;;;1.10;;
71769;SDS011;66386;52.122;5.420;2023-04-02T11:10:54;1.83;;;1.00;;
71769;SDS011;66386;52.122;5.420;2023-04-02T11:13:30;1.35;;;0.60;;
71769;SDS011;66386;52.122;5.420;2023-04-02T11:16:02;2.78;;;0.90;;
71769;SDS011;66386;52.122;5.420;2023-04-02T11:18:32;2.77;;;1.07;;
71769;SDS011;66386;52.122;5.420;2023-04-02T11:21:04;3.35;;;1.15;;
71769;SDS011;66386;52.122;5.420;2023-04-02T11:23:34;3.75;;;1.27;;
71769;SDS011;66386;52.122;5.420;2023-04-02T11:29:05;1.65;;;0.80;;
71769;SDS011;66386;52.122;5.420;2023-04-02T11:31:39;2.63;;;0.60;;
71769;SDS011;66386;52.122;5.420;2023-04-02T11:37:28;2.67;;;1.00;;
71769;SDS011;66386;52.122;5.420;2023-04-02T11:42:39;1.33;;;0.68;;
71769;SDS011;66386;52.122;5.420;2023-04-02T11:50:30;1.88;;;0.60;;
71769;SDS011;66386;52.122;5.420;2023-04-02T11:52:58;1.88;;;0.90;;
71769;SDS011;66386;52.122;5.420;2023-04-02T11:55:32;3.13;;;1.02;;
71769;SDS011;66386;52.122;5.420;2023-04-02T11:58:06;1.93;;;1.30;;
71769;SDS011;66386;52.122;5.420;2023-04-02T12:06:48;2.65;;;1.20;;
71769;SDS011;66386;52.122;5.420;2023-04-02T12:11:56;2.77;;;0.93;;
71769;SDS011;66386;52.122;5.420;2023-04-02T12:14:44;2.88;;;1.55;;
71769;SDS011;66386;52.122;5.420;2023-04-02T12:17:30;2.55;;;1.30;;
71769;SDS011;66386;52.122;5.420;2023-04-02T12:22:39;2.40;;;1.00;;
71769;SDS011;66386;52.122;5.420;2023-04-02T12:25:24;1.33;;;0.77;;
71769;SDS011;66386;52.122;5.420;2023-04-02T12:30:36;3.20;;;0.80;;
71769;SDS011;66386;52.122;5.420;2023-04-02T12:33:13;2.75;;;0.95;;
71769;SDS011;66386;52.122;5.420;2023-04-02T12:36:03;3.28;;;1.52;;
71769;SDS011;66386;52.122;5.420;2023-04-02T12:38:33;2.33;;;0.80;;
71769;SDS011;66386;52.122;5.420;2023-04-02T12:44:35;1.48;;;0.85;;
71769;SDS011;66386;52.122;5.420;2023-04-02T12:46:49;2.03;;;0.98;;
71769;SDS011;66386;52.122;5.420;2023-04-02T12:49:36;1.20;;;0.60;;
71769;SDS011;66386;52.122;5.420;2023-04-02T12:52:06;2.67;;;1.07;;
71769;SDS011;66386;52.122;5.420;2023-04-02T12:54:37;2.17;;;0.80;;
71769;SDS011;66386;52.122;5.420;2023-04-02T12:59:53;3.22;;;1.00;;
71769;SDS011;66386;52.122;5.420;2023-04-02T13:02:21;3.03;;;1.45;;
71769;SDS011;66386;52.122;5.420;2023-04-02T13:04:54;2.77;;;1.07;;
71769;SDS011;66386;52.122;5.420;2023-04-02T13:07:23;2.13;;;0.90;;
71769;SDS011;66386;52.122;5.420;2023-04-02T13:09:52;2.33;;;1.05;;
71769;SDS011;66386;52.122;5.420;2023-04-02T13:12:33;1.45;;;0.88;;
71769;SDS011;66386;52.122;5.420;2023-04-02T13:15:06;1.83;;;0.85;;
71769;SDS011;66386;52.122;5.420;2023-04-02T13:17:47;2.07;;;0.70;;
71769;SDS011;66386;52.122;5.420;2023-04-02T13:20:35;1.80;;;0.93;;
71769;SDS011;66386;52.122;5.420;2023-04-02T13:23:22;2.05;;;0.90;;
71769;SDS011;66386;52.122;5.420;2023-04-02T13:25:55;2.83;;;0.98;;
71769;SDS011;66386;52.122;5.420;2023-04-02T13:28:24;2.80;;;0.98;;
71769;SDS011;66386;52.122;5.420;2023-04-02T13:30:50;4.03;;;0.87;;
71769;SDS011;66386;52.122;5.420;2023-04-02T13:33:17;2.88;;;0.82;;
71769;SDS011;66386;52.122;5.420;2023-04-02T13:35:43;1.70;;;0.80;;
71769;SDS011;66386;52.122;5.420;2023-04-02T13:38:10;1.33;;;0.68;;
71769;SDS011;66386;52.122;5.420;2023-04-02T13:40:37;2.08;;;0.75;;
71769;SDS011;66386;52.122;5.420;2023-04-02T13:43:04;1.23;;;0.60;;
71769;SDS011;66386;52.122;5.420;2023-04-02T13:45:32;2.60;;;0.90;;
71769;SDS011;66386;52.122;5.420;2023-04-02T13:48:03;1.70;;;1.30;;
71769;SDS011;66386;52.122;5.420;2023-04-02T13:50:31;1.95;;;1.33;;
71769;SDS011;66386;52.122;5.420;2023-04-02T13:53:03;2.97;;;0.80;;
71769;SDS011;66386;52.122;5.420;2023-04-02T13:55:36;1.47;;;0.63;;
71769;SDS011;66386;52.122;5.420;2023-04-02T13:58:05;0.90;;;0.60;;
71769;SDS011;66386;52.122;5.420;2023-04-02T14:00:31;1.60;;;1.00;;
71769;SDS011;66386;52.122;5.420;2023-04-02T14:03:03;2.00;;;0.60;;
71769;SDS011;66386;52.122;5.420;2023-04-02T14:08:07;1.70;;;0.57;;
71769;SDS011;66386;52.122;5.420;2023-04-02T14:19:16;1.88;;;0.70;;
71769;SDS011;66386;52.122;5.420;2023-04-02T14:30:03;3.25;;;1.00;;
71769;SDS011;66386;52.122;5.420;2023-04-02T14:40:47;1.75;;;0.70;;
71769;SDS011;66386;52.122;5.420;2023-04-02T14:44:07;2.22;;;0.80;;
71769;SDS011;66386;52.122;5.420;2023-04-02T14:46:31;1.00;;;0.50;;
71769;SDS011;66386;52.122;5.420;2023-04-02T14:49:20;1.50;;;0.70;;
71769;SDS011;66386;52.122;5.420;2023-04-02T14:57:12;2.08;;;0.70;;
71769;SDS011;66386;52.122;5.420;2023-04-02T15:03:05;2.00;;;0.70;;
71769;SDS011;66386;52.122;5.420;2023-04-02T15:08:19;2.47;;;0.90;;
71769;SDS011;66386;52.122;5.420;2023-04-02T15:11:03;1.90;;;0.50;;
71769;SDS011;66386;52.122;5.420;2023-04-02T15:16:08;1.47;;;0.60;;
71769;SDS011;66386;52.122;5.420;2023-04-02T15:18:38;2.40;;;0.70;;
71769;SDS011;66386;52.122;5.420;2023-04-02T15:31:53;1.40;;;0.43;;
71769;SDS011;66386;52.122;5.420;2023-04-02T15:34:33;0.85;;;0.43;;
71769;SDS011;66386;52.122;5.420;2023-04-02T15:37:18;1.63;;;0.60;;
71769;SDS011;66386;52.122;5.420;2023-04-02T15:43:33;1.53;;;0.50;;
71769;SDS011;66386;52.122;5.420;2023-04-02T15:46:08;2.15;;;0.85;;
71769;SDS011;66386;52.122;5.420;2023-04-02T15:48:47;0.90;;;0.55;;
71769;SDS011;66386;52.122;5.420;2023-04-02T15:54:28;5.47;;;0.85;;
71769;SDS011;66386;52.122;5.420;2023-04-02T15:57:34;1.63;;;0.57;;
71769;SDS011;66386;52.122;5.420;2023-04-02T16:00:24;2.05;;;0.70;;
71769;SDS011;66386;52.122;5.420;2023-04-02T16:08:34;3.22;;;0.80;;
71769;SDS011;66386;52.122;5.420;2023-04-02T16:11:13;2.40;;;0.83;;
71769;SDS011;66386;52.122;5.420;2023-04-02T16:13:40;2.15;;;0.60;;
71769;SDS011;66386;52.122;5.420;2023-04-02T16:16:19;1.73;;;0.60;;
71769;SDS011;66386;52.122;5.420;2023-04-02T16:21:28;1.85;;;0.70;;
71769;SDS011;66386;52.122;5.420;2023-04-02T16:24:07;3.60;;;1.00;;
71769;SDS011;66386;52.122;5.420;2023-04-02T16:26:46;1.33;;;0.57;;
71769;SDS011;66386;52.122;5.420;2023-04-02T16:29:41;1.38;;;0.90;;
71769;SDS011;66386;52.122;5.420;2023-04-02T16:43:47;1.63;;;0.60;;
71769;SDS011;66386;52.122;5.420;2023-04-02T16:46:38;3.35;;;0.60;;
71769;SDS011;66386;52.122;5.420;2023-04-02T16:55:15;2.38;;;0.68;;
71769;SDS011;66386;52.122;5.420;2023-04-02T17:00:36;2.58;;;0.47;;
71769;SDS011;66386;52.122;5.420;2023-04-02T17:04:03;2.33;;;0.70;;
71769;SDS011;66386;52.122;5.420;2023-04-02T17:09:13;4.03;;;0.70;;
71769;SDS011;66386;52.122;5.420;2023-04-02T17:11:48;1.42;;;0.70;;
71769;SDS011;66386;52.122;5.420;2023-04-02T17:17:07;2.40;;;0.95;;
71769;SDS011;66386;52.122;5.420;2023-04-02T17:19:36;1.30;;;0.50;;
71769;SDS011;66386;52.122;5.420;2023-04-02T17:22:10;1.95;;;0.90;;
71769;SDS011;66386;52.122;5.420;2023-04-02T17:24:43;1.30;;;0.98;;
71769;SDS011;66386;52.122;5.420;2023-04-02T17:27:17;1.60;;;1.15;;
71769;SDS011;66386;52.122;5.420;2023-04-02T17:29:49;2.10;;;0.80;;
71769;SDS011;66386;52.122;5.420;2023-04-02T17:32:25;1.87;;;0.87;;
71769;SDS011;66386;52.122;5.420;2023-04-02T17:34:55;5.13;;;0.93;;
71769;SDS011;66386;52.122;5.420;2023-04-02T17:37:24;1.98;;;0.90;;
71769;SDS011;66386;52.122;5.420;2023-04-02T17:42:47;2.90;;;1.00;;
71769;SDS011;66386;52.122;5.420;2023-04-02T17:48:00;8.80;;;3.85;;
71769;SDS011;66386;52.122;5.420;2023-04-02T17:50:44;2.72;;;2.42;;
71769;SDS011;66386;52.122;5.420;2023-04-02T17:53:34;2.95;;;0.90;;
71769;SDS011;66386;52.122;5.420;2023-04-02T18:05:19;1.20;;;0.73;;
71769;SDS011;66386;52.122;5.420;2023-04-02T18:14:03;2.13;;;0.87;;
71769;SDS011;66386;52.122;5.420;2023-04-02T18:22:29;3.17;;;1.20;;
71769;SDS011;66386;52.122;5.420;2023-04-02T18:50:28;2.42;;;0.90;;
71769;SDS011;66386;52.122;5.420;2023-04-02T18:52:57;3.00;;;0.75;;
71769;SDS011;66386;52.122;5.420;2023-04-02T18:55:27;1.63;;;0.90;;
71769;SDS011;66386;52.122;5.420;2023-04-02T18:58:03;1.23;;;0.70;;
71769;SDS011;66386;52.122;5.420;2023-04-02T19:00:37;2.00;;;0.70;;
71769;SDS011;66386;52.122;5.420;2023-04-02T19:03:21;2.17;;;0.70;;
71769;SDS011;66386;52.122;5.420;2023-04-02T19:06:10;3.70;;;0.85;;
71769;SDS011;66386;52.122;5.420;2023-04-02T19:08:44;3.20;;;0.83;;
71769;SDS011;66386;52.122;5.420;2023-04-02T19:11:16;5.43;;;0.80;;
71769;SDS011;66386;52.122;5.420;2023-04-02T19:13:52;2.58;;;1.10;;
71769;SDS011;66386;52.122;5.420;2023-04-02T19:16:33;2.72;;;0.60;;
71769;SDS011;66386;52.122;5.420;2023-04-02T19:19:24;4.35;;;0.70;;
71769;SDS011;66386;52.122;5.420;2023-04-02T19:30:33;2.42;;;0.68;;
71769;SDS011;66386;52.122;5.420;2023-04-02T19:40:57;3.72;;;0.55;;
71769;SDS011;66386;52.122;5.420;2023-04-02T19:43:25;4.30;;;0.63;;
71769;SDS011;66386;52.122;5.420;2023-04-02T19:45:52;2.97;;;0.65;;
71769;SDS011;66386;52.122;5.420;2023-04-02T19:48:26;3.47;;;1.13;;
71769;SDS011;66386;52.122;5.420;2023-04-02T19:51:00;2.95;;;0.90;;
71769;SDS011;66386;52.122;5.420;2023-04-02T19:53:26;4.30;;;2.28;;
71769;SDS011;66386;52.122;5.420;2023-04-02T19:55:53;4.95;;;1.75;;
71769;SDS011;66386;52.122;5.420;2023-04-02T19:58:29;9.52;;;2.00;;
71769;SDS011;66386;52.122;5.420;2023-04-02T20:00:57;4.57;;;1.50;;
71769;SDS011;66386;52.122;5.420;2023-04-02T20:03:23;4.35;;;1.13;;
71769;SDS011;66386;52.122;5.420;2023-04-02T20:05:50;4.75;;;1.10;;
71769;SDS011;66386;52.122;5.420;2023-04-02T20:08:17;3.08;;;1.20;;
71769;SDS011;66386;52.122;5.420;2023-04-02T20:10:44;2.85;;;1.17;;
71769;SDS011;66386;52.122;5.420;2023-04-02T20:13:11;4.17;;;1.30;;
71769;SDS011;66386;52.122;5.420;2023-04-02T20:15:38;3.65;;;1.38;;
71769;SDS011;66386;52.122;5.420;2023-04-02T20:18:05;4.80;;;1.55;;
71769;SDS011;66386;52.122;5.420;2023-04-02T20:20:32;4.32;;;1.58;;
71769;SDS011;66386;52.122;5.420;2023-04-02T20:22:59;3.25;;;1.35;;
71769;SDS011;66386;52.122;5.420;2023-04-02T20:25:25;3.57;;;1.07;;
71769;SDS011;66386;52.122;5.420;2023-04-02T20:27:52;2.65;;;0.70;;